sensor_id;sensor_type;location;lat;lon;timestamp;pressure;altitude;pressure_sealevel;temperature;humidity
41624;BME280;27319;50.306;18.926;2022-09-29T00:00:07;96841.19;;;10.27;95.13
41624;BME280;27319;50.306;18.926;2022-09-29T00:04:22;96855.66;;;10.33;95.36
41624;BME280;27319;50.306;18.926;2022-09-29T00:08:23;96855.22;;;10.29;94.95
41624;BME280;27319;50.306;18.926;2022-09-29T00:12:23;96858.09;;;10.21;94.87
41624;BME280;27319;50.306;18.926;2022-09-29T00:16:23;96848.94;;;10.09;95.26
41624;BME280;27319;50.306;18.926;2022-09-29T00:20:24;96833.59;;;9.97;95.91
41624;BME280;27319;50.306;18.926;2022-09-29T00:24:25;96841.03;;;10.01;97.01
41624;BME280;27319;50.306;18.926;2022-09-29T00:28:27;96862.56;;;10.14;97.91
41624;BME280;27319;50.306;18.926;2022-09-29T00:32:27;96870.03;;;10.19;97.60
41624;BME280;27319;50.306;18.926;2022-09-29T00:35:36;96876.63;;;10.16;97.88
41624;BME280;27319;50.306;18.926;2022-09-29T00:38:37;96872.50;;;10.20;97.81
41624;BME280;27319;50.306;18.926;2022-09-29T00:41:39;96878.69;;;10.21;97.29
41624;BME280;27319;50.306;18.926;2022-09-29T00:45:11;96879.91;;;10.18;96.86
41624;BME280;27319;50.306;18.926;2022-09-29T00:48:16;96879.53;;;10.28;97.58
41624;BME280;27319;50.306;18.926;2022-09-29T00:51:19;96880.78;;;10.25;96.82
41624;BME280;27319;50.306;18.926;2022-09-29T00:54:21;96892.94;;;10.21;96.85
41624;BME280;27319;50.306;18.926;2022-09-29T00:57:28;96895.63;;;10.28;98.62
41624;BME280;27319;50.306;18.926;2022-09-29T01:00:30;96896.09;;;10.38;97.94
41624;BME280;27319;50.306;18.926;2022-09-29T01:03:36;96898.59;;;10.46;98.24
41624;BME280;27319;50.306;18.926;2022-09-29T01:06:50;96897.34;;;10.35;97.31
41624;BME280;27319;50.306;18.926;2022-09-29T01:10:12;96892.75;;;10.29;97.47
41624;BME280;27319;50.306;18.926;2022-09-29T01:14:13;96889.03;;;10.24;97.10
41624;BME280;27319;50.306;18.926;2022-09-29T01:18:13;96889.53;;;10.06;97.37
41624;BME280;27319;50.306;18.926;2022-09-29T01:29:33;96901.63;;;9.96;97.37
41624;BME280;27319;50.306;18.926;2022-09-29T01:37:29;96906.75;;;9.97;97.92
41624;BME280;27319;50.306;18.926;2022-09-29T01:41:32;96907.41;;;9.99;98.04
41624;BME280;27319;50.306;18.926;2022-09-29T01:45:33;96897.69;;;9.92;97.79
41624;BME280;27319;50.306;18.926;2022-09-29T01:49:34;96889.81;;;9.90;98.08
41624;BME280;27319;50.306;18.926;2022-09-29T01:53:39;96902.06;;;9.99;98.16
41624;BME280;27319;50.306;18.926;2022-09-29T01:57:20;96897.06;;;9.96;97.81
41624;BME280;27319;50.306;18.926;2022-09-29T02:01:19;96912.03;;;10.05;98.50
41624;BME280;27319;50.306;18.926;2022-09-29T02:05:29;96914.94;;;10.10;98.50
41624;BME280;27319;50.306;18.926;2022-09-29T02:09:29;96929.63;;;10.21;98.14
41624;BME280;27319;50.306;18.926;2022-09-29T02:13:33;96935.66;;;10.29;97.92
41624;BME280;27319;50.306;18.926;2022-09-29T02:17:30;96933.22;;;10.34;98.45
41624;BME280;27319;50.306;18.926;2022-09-29T02:21:30;96925.53;;;10.25;98.17
41624;BME280;27319;50.306;18.926;2022-09-29T02:25:31;96922.34;;;10.08;97.51
41624;BME280;27319;50.306;18.926;2022-09-29T02:29:32;96916.25;;;9.93;97.52
41624;BME280;27319;50.306;18.926;2022-09-29T02:33:24;96901.13;;;9.86;97.84
41624;BME280;27319;50.306;18.926;2022-09-29T02:36:59;96900.91;;;9.81;98.30
41624;BME280;27319;50.306;18.926;2022-09-29T02:49:32;96894.22;;;9.98;98.23
41624;BME280;27319;50.306;18.926;2022-09-29T02:52:55;96897.25;;;9.95;97.72
41624;BME280;27319;50.306;18.926;2022-09-29T02:56:10;96901.91;;;9.80;97.62
41624;BME280;27319;50.306;18.926;2022-09-29T03:02:42;96913.78;;;9.64;98.34
41624;BME280;27319;50.306;18.926;2022-09-29T03:06:03;96898.75;;;9.70;98.15
41624;BME280;27319;50.306;18.926;2022-09-29T03:10:04;96903.41;;;9.55;98.78
41624;BME280;27319;50.306;18.926;2022-09-29T03:14:05;96903.34;;;9.48;99.37
41624;BME280;27319;50.306;18.926;2022-09-29T03:18:05;96908.59;;;9.63;99.44
41624;BME280;27319;50.306;18.926;2022-09-29T03:22:06;96893.63;;;9.75;99.44
41624;BME280;27319;50.306;18.926;2022-09-29T03:25:46;96915.50;;;9.78;98.98
41624;BME280;27319;50.306;18.926;2022-09-29T03:29:07;96921.72;;;9.85;99.25
41624;BME280;27319;50.306;18.926;2022-09-29T03:32:48;96926.06;;;9.86;98.99
41624;BME280;27319;50.306;18.926;2022-09-29T03:35:49;96928.75;;;9.86;99.14
41624;BME280;27319;50.306;18.926;2022-09-29T03:38:50;96930.03;;;9.90;99.12
41624;BME280;27319;50.306;18.926;2022-09-29T03:41:51;96925.69;;;9.89;98.20
41624;BME280;27319;50.306;18.926;2022-09-29T03:44:53;96929.69;;;9.72;97.77
41624;BME280;27319;50.306;18.926;2022-09-29T03:48:14;96921.41;;;9.67;98.23
41624;BME280;27319;50.306;18.926;2022-09-29T03:52:14;96921.03;;;9.70;98.26
41624;BME280;27319;50.306;18.926;2022-09-29T03:56:15;96926.50;;;9.62;98.17
41624;BME280;27319;50.306;18.926;2022-09-29T04:00:15;96921.28;;;9.75;98.57
41624;BME280;27319;50.306;18.926;2022-09-29T04:03:58;96927.63;;;9.74;98.09
41624;BME280;27319;50.306;18.926;2022-09-29T04:07:58;96927.34;;;9.63;97.89
41624;BME280;27319;50.306;18.926;2022-09-29T04:11:59;96941.06;;;9.53;98.36
41624;BME280;27319;50.306;18.926;2022-09-29T04:16:03;96937.03;;;9.64;98.14
41624;BME280;27319;50.306;18.926;2022-09-29T04:19:44;96930.38;;;9.53;98.30
41624;BME280;27319;50.306;18.926;2022-09-29T04:23:27;96938.25;;;9.40;98.88
41624;BME280;27319;50.306;18.926;2022-09-29T04:26:30;96931.25;;;9.39;99.02
41624;BME280;27319;50.306;18.926;2022-09-29T04:29:30;96941.78;;;9.41;99.42
41624;BME280;27319;50.306;18.926;2022-09-29T04:32:32;96951.59;;;9.55;99.65
41624;BME280;27319;50.306;18.926;2022-09-29T04:35:32;96955.72;;;9.57;100.00
41624;BME280;27319;50.306;18.926;2022-09-29T04:38:33;96955.16;;;9.62;100.00
41624;BME280;27319;50.306;18.926;2022-09-29T04:41:54;96961.22;;;9.70;100.00
41624;BME280;27319;50.306;18.926;2022-09-29T04:46:04;96958.78;;;9.75;99.94
41624;BME280;27319;50.306;18.926;2022-09-29T04:50:01;96960.44;;;9.76;99.17
41624;BME280;27319;50.306;18.926;2022-09-29T04:54:02;96959.09;;;9.66;98.92
41624;BME280;27319;50.306;18.926;2022-09-29T04:58:03;96955.72;;;9.57;99.34
41624;BME280;27319;50.306;18.926;2022-09-29T05:02:03;96952.66;;;9.60;99.31
41624;BME280;27319;50.306;18.926;2022-09-29T05:06:04;96957.44;;;9.65;99.32
41624;BME280;27319;50.306;18.926;2022-09-29T05:10:05;96958.31;;;9.72;99.82
41624;BME280;27319;50.306;18.926;2022-09-29T05:14:05;96969.88;;;9.72;99.98
41624;BME280;27319;50.306;18.926;2022-09-29T05:18:06;96979.88;;;9.85;100.00
41624;BME280;27319;50.306;18.926;2022-09-29T05:22:07;96985.84;;;10.08;99.46
41624;BME280;27319;50.306;18.926;2022-09-29T05:26:08;96989.00;;;10.18;99.56
41624;BME280;27319;50.306;18.926;2022-09-29T05:30:08;96982.59;;;10.12;98.85
41624;BME280;27319;50.306;18.926;2022-09-29T05:33:49;96978.75;;;10.00;98.27
41624;BME280;27319;50.306;18.926;2022-09-29T05:36:50;96975.38;;;9.92;98.28
41624;BME280;27319;50.306;18.926;2022-09-29T05:39:51;96971.63;;;9.86;98.44
41624;BME280;27319;50.306;18.926;2022-09-29T05:42:52;96965.19;;;9.81;98.85
41624;BME280;27319;50.306;18.926;2022-09-29T05:46:12;96961.69;;;9.80;99.13
41624;BME280;27319;50.306;18.926;2022-09-29T05:49:41;96963.81;;;9.85;99.07
41624;BME280;27319;50.306;18.926;2022-09-29T05:53:42;96958.38;;;9.78;99.78
41624;BME280;27319;50.306;18.926;2022-09-29T05:57:22;96967.44;;;9.77;100.00
41624;BME280;27319;50.306;18.926;2022-09-29T06:00:43;96965.38;;;9.79;99.91
41624;BME280;27319;50.306;18.926;2022-09-29T06:04:43;96977.22;;;9.91;100.00
41624;BME280;27319;50.306;18.926;2022-09-29T06:08:44;96976.53;;;10.04;100.00
41624;BME280;27319;50.306;18.926;2022-09-29T06:12:45;96975.56;;;10.11;99.92
41624;BME280;27319;50.306;18.926;2022-09-29T06:16:46;96980.81;;;10.26;99.04
41624;BME280;27319;50.306;18.926;2022-09-29T06:20:26;96983.06;;;10.22;98.96
41624;BME280;27319;50.306;18.926;2022-09-29T06:23:28;96989.84;;;10.18;99.18
41624;BME280;27319;50.306;18.926;2022-09-29T06:26:28;96998.28;;;10.15;99.35
41624;BME280;27319;50.306;18.926;2022-09-29T06:29:30;97005.75;;;10.20;99.23
41624;BME280;27319;50.306;18.926;2022-09-29T06:32:30;96998.13;;;10.23;100.00
41624;BME280;27319;50.306;18.926;2022-09-29T06:35:51;96993.00;;;10.28;100.00
41624;BME280;27319;50.306;18.926;2022-09-29T06:39:50;96996.19;;;10.38;100.00
41624;BME280;27319;50.306;18.926;2022-09-29T06:43:51;97005.47;;;10.42;100.00
41624;BME280;27319;50.306;18.926;2022-09-29T06:47:56;96993.31;;;10.46;99.84
41624;BME280;27319;50.306;18.926;2022-09-29T06:51:52;96989.00;;;10.45;99.03
41624;BME280;27319;50.306;18.926;2022-09-29T06:55:53;96997.09;;;10.58;99.46
41624;BME280;27319;50.306;18.926;2022-09-29T06:59:54;96996.13;;;10.66;99.12
41624;BME280;27319;50.306;18.926;2022-09-29T07:03:54;96996.53;;;10.69;99.34
41624;BME280;27319;50.306;18.926;2022-09-29T07:07:55;96999.84;;;10.71;97.99
41624;BME280;27319;50.306;18.926;2022-09-29T07:11:35;96983.38;;;10.74;97.96
41624;BME280;27319;50.306;18.926;2022-09-29T07:14:38;96993.31;;;10.80;98.73
41624;BME280;27319;50.306;18.926;2022-09-29T07:17:39;96998.66;;;10.80;98.78
41624;BME280;27319;50.306;18.926;2022-09-29T07:20:40;97011.91;;;10.82;97.89
41624;BME280;27319;50.306;18.926;2022-09-29T07:23:41;97006.94;;;10.85;98.26
41624;BME280;27319;50.306;18.926;2022-09-29T07:26:42;97006.53;;;10.88;97.60
41624;BME280;27319;50.306;18.926;2022-09-29T07:29:43;97000.56;;;10.86;97.13
41624;BME280;27319;50.306;18.926;2022-09-29T07:32:44;97009.66;;;10.91;97.28
41624;BME280;27319;50.306;18.926;2022-09-29T07:36:05;97006.94;;;10.85;95.89
41624;BME280;27319;50.306;18.926;2022-09-29T07:40:06;97014.63;;;10.94;95.21
41624;BME280;27319;50.306;18.926;2022-09-29T07:44:06;97017.97;;;11.03;94.65
41624;BME280;27319;50.306;18.926;2022-09-29T07:48:07;97023.56;;;11.08;91.62
41624;BME280;27319;50.306;18.926;2022-09-29T07:52:08;97026.06;;;11.16;91.97
41624;BME280;27319;50.306;18.926;2022-09-29T07:56:12;97025.69;;;11.19;93.57
41624;BME280;27319;50.306;18.926;2022-09-29T08:00:09;97026.09;;;11.22;92.38
41624;BME280;27319;50.306;18.926;2022-09-29T08:04:10;97036.00;;;11.22;90.05
41624;BME280;27319;50.306;18.926;2022-09-29T08:07:50;97039.75;;;11.27;89.60
41624;BME280;27319;50.306;18.926;2022-09-29T08:11:13;97045.13;;;11.34;88.22
41624;BME280;27319;50.306;18.926;2022-09-29T08:15:13;97046.63;;;11.43;87.02
41624;BME280;27319;50.306;18.926;2022-09-29T08:19:13;97052.84;;;11.50;88.48
41624;BME280;27319;50.306;18.926;2022-09-29T08:23:09;97053.44;;;11.45;86.25
41624;BME280;27319;50.306;18.926;2022-09-29T08:27:10;97060.50;;;11.53;87.84
41624;BME280;27319;50.306;18.926;2022-09-29T08:30:38;97059.50;;;11.60;89.99
41624;BME280;27319;50.306;18.926;2022-09-29T08:34:19;97065.53;;;11.62;88.40
41624;BME280;27319;50.306;18.926;2022-09-29T08:37:20;97072.56;;;11.63;87.16
41624;BME280;27319;50.306;18.926;2022-09-29T08:40:21;97079.50;;;11.58;86.40
41624;BME280;27319;50.306;18.926;2022-09-29T08:43:27;97075.00;;;11.58;88.67
41624;BME280;27319;50.306;18.926;2022-09-29T08:47:33;97078.97;;;11.62;87.34
41624;BME280;27319;50.306;18.926;2022-09-29T08:50:55;97077.09;;;11.63;85.87
41624;BME280;27319;50.306;18.926;2022-09-29T08:54:56;97075.03;;;11.71;82.32
41624;BME280;27319;50.306;18.926;2022-09-29T08:58:55;97079.63;;;11.84;85.06
41624;BME280;27319;50.306;18.926;2022-09-29T09:02:42;97071.16;;;11.93;82.21
41624;BME280;27319;50.306;18.926;2022-09-29T09:21:07;97084.00;;;12.17;78.54
41624;BME280;27319;50.306;18.926;2022-09-29T09:24:48;97090.44;;;12.23;81.44
41624;BME280;27319;50.306;18.926;2022-09-29T09:28:13;97087.34;;;12.32;85.35
41624;BME280;27319;50.306;18.926;2022-09-29T09:31:23;97093.34;;;12.28;82.01
41624;BME280;27319;50.306;18.926;2022-09-29T09:38:51;97090.22;;;12.18;79.48
41624;BME280;27319;50.306;18.926;2022-09-29T09:42:51;97093.72;;;12.12;78.81
41624;BME280;27319;50.306;18.926;2022-09-29T09:46:36;97093.75;;;12.25;76.78
41624;BME280;27319;50.306;18.926;2022-09-29T09:50:03;97098.06;;;12.26;78.90
41624;BME280;27319;50.306;18.926;2022-09-29T09:53:46;97086.09;;;12.35;80.96
41624;BME280;27319;50.306;18.926;2022-09-29T10:00:53;97109.06;;;12.31;83.36
41624;BME280;27319;50.306;18.926;2022-09-29T10:04:51;97110.91;;;12.37;82.44
41624;BME280;27319;50.306;18.926;2022-09-29T10:08:52;97112.34;;;12.72;80.44
41624;BME280;27319;50.306;18.926;2022-09-29T10:12:57;97103.25;;;12.86;80.38
41624;BME280;27319;50.306;18.926;2022-09-29T10:17:05;97111.91;;;12.81;80.45
41624;BME280;27319;50.306;18.926;2022-09-29T10:25:11;97105.31;;;12.77;81.72
41624;BME280;27319;50.306;18.926;2022-09-29T10:32:00;97102.50;;;13.80;78.88
41624;BME280;27319;50.306;18.926;2022-09-29T10:35:40;97109.22;;;14.02;76.58
41624;BME280;27319;50.306;18.926;2022-09-29T10:38:45;97105.41;;;13.78;76.38
41624;BME280;27319;50.306;18.926;2022-09-29T10:41:51;97114.84;;;13.63;77.04
41624;BME280;27319;50.306;18.926;2022-09-29T10:45:01;97114.22;;;13.61;78.69
41624;BME280;27319;50.306;18.926;2022-09-29T10:48:14;97117.53;;;13.63;78.08
41624;BME280;27319;50.306;18.926;2022-09-29T10:51:19;97121.09;;;13.57;78.42
41624;BME280;27319;50.306;18.926;2022-09-29T10:58:58;97129.50;;;13.73;74.18
41624;BME280;27319;50.306;18.926;2022-09-29T11:06:55;97128.78;;;13.53;75.24
41624;BME280;27319;50.306;18.926;2022-09-29T11:18:19;97125.16;;;14.10;78.69
41624;BME280;27319;50.306;18.926;2022-09-29T11:29:49;97133.13;;;14.36;74.25
41624;BME280;27319;50.306;18.926;2022-09-29T11:34:40;97126.47;;;14.01;74.23
41624;BME280;27319;50.306;18.926;2022-09-29T11:42:04;97128.97;;;13.52;76.41
41624;BME280;27319;50.306;18.926;2022-09-29T11:45:29;97130.88;;;13.45;77.00
41624;BME280;27319;50.306;18.926;2022-09-29T11:49:33;97130.28;;;13.43;76.15
41624;BME280;27319;50.306;18.926;2022-09-29T11:52:50;97119.25;;;13.44;77.30
41624;BME280;27319;50.306;18.926;2022-09-29T12:00:10;97120.09;;;13.51;77.11
41624;BME280;27319;50.306;18.926;2022-09-29T12:11:35;97130.44;;;13.48;79.60
41624;BME280;27319;50.306;18.926;2022-09-29T12:19:32;97116.56;;;13.44;77.19
41624;BME280;27319;50.306;18.926;2022-09-29T12:23:33;97134.63;;;13.44;76.62
41624;BME280;27319;50.306;18.926;2022-09-29T12:27:36;97137.31;;;13.44;78.44
41624;BME280;27319;50.306;18.926;2022-09-29T12:31:51;97142.91;;;13.49;79.13
41624;BME280;27319;50.306;18.926;2022-09-29T12:36:08;97138.69;;;13.66;75.91
41624;BME280;27319;50.306;18.926;2022-09-29T12:39:44;97136.63;;;13.99;75.47
41624;BME280;27319;50.306;18.926;2022-09-29T12:43:36;97135.25;;;13.90;76.32
41624;BME280;27319;50.306;18.926;2022-09-29T12:46:56;97135.66;;;13.87;75.55
41624;BME280;27319;50.306;18.926;2022-09-29T12:53:15;97138.81;;;13.77;78.63
41624;BME280;27319;50.306;18.926;2022-09-29T12:57:14;97136.56;;;13.74;76.99
41624;BME280;27319;50.306;18.926;2022-09-29T13:01:21;97139.00;;;13.82;77.56
41624;BME280;27319;50.306;18.926;2022-09-29T13:27:52;97149.94;;;13.50;76.85
41624;BME280;27319;50.306;18.926;2022-09-29T13:31:53;97157.38;;;13.48;76.76
41624;BME280;27319;50.306;18.926;2022-09-29T13:35:56;97160.28;;;13.53;78.45
41624;BME280;27319;50.306;18.926;2022-09-29T13:39:58;97166.72;;;13.52;78.26
41624;BME280;27319;50.306;18.926;2022-09-29T13:47:47;97175.84;;;13.51;76.86
41624;BME280;27319;50.306;18.926;2022-09-29T13:59:40;97169.81;;;13.55;78.92
41624;BME280;27319;50.306;18.926;2022-09-29T14:03:36;97168.56;;;13.58;77.09
41624;BME280;27319;50.306;18.926;2022-09-29T14:14:59;97181.38;;;14.19;77.70
41624;BME280;27319;50.306;18.926;2022-09-29T14:19:47;97188.16;;;14.90;78.46
41624;BME280;27319;50.306;18.926;2022-09-29T14:23:10;97200.16;;;15.19;73.95
41624;BME280;27319;50.306;18.926;2022-09-29T14:26:52;97203.72;;;14.95;73.11
41624;BME280;27319;50.306;18.926;2022-09-29T14:33:20;97198.50;;;14.69;72.75
41624;BME280;27319;50.306;18.926;2022-09-29T14:37:21;97192.25;;;14.44;73.77
41624;BME280;27319;50.306;18.926;2022-09-29T14:48:11;97202.97;;;14.19;75.03
41624;BME280;27319;50.306;18.926;2022-09-29T15:03:52;97199.59;;;13.73;74.90
41624;BME280;27319;50.306;18.926;2022-09-29T15:06:53;97195.47;;;13.71;75.60
41624;BME280;27319;50.306;18.926;2022-09-29T15:09:58;97195.97;;;13.55;74.44
41624;BME280;27319;50.306;18.926;2022-09-29T15:13:29;97206.97;;;13.47;75.29
41624;BME280;27319;50.306;18.926;2022-09-29T15:17:17;97219.41;;;13.41;75.65
41624;BME280;27319;50.306;18.926;2022-09-29T15:21:04;97216.31;;;13.31;75.36
41624;BME280;27319;50.306;18.926;2022-09-29T15:24:48;97218.81;;;13.26;76.40
41624;BME280;27319;50.306;18.926;2022-09-29T15:27:53;97214.47;;;13.19;77.92
41624;BME280;27319;50.306;18.926;2022-09-29T15:31:01;97224.44;;;13.12;78.27
41624;BME280;27319;50.306;18.926;2022-09-29T15:34:03;97218.00;;;13.00;77.28
41624;BME280;27319;50.306;18.926;2022-09-29T15:37:04;97227.53;;;12.96;79.36
41624;BME280;27319;50.306;18.926;2022-09-29T15:40:08;97229.97;;;12.91;79.61
41624;BME280;27319;50.306;18.926;2022-09-29T15:43:43;97237.44;;;12.89;79.59
41624;BME280;27319;50.306;18.926;2022-09-29T15:46:55;97232.50;;;12.86;79.62
41624;BME280;27319;50.306;18.926;2022-09-29T15:49:57;97231.25;;;12.82;80.06
41624;BME280;27319;50.306;18.926;2022-09-29T15:52:58;97233.50;;;12.85;80.85
41624;BME280;27319;50.306;18.926;2022-09-29T15:56:22;97239.94;;;12.84;81.46
41624;BME280;27319;50.306;18.926;2022-09-29T16:04:08;97237.84;;;12.73;80.71
41624;BME280;27319;50.306;18.926;2022-09-29T16:11:52;97228.72;;;12.54;80.43
41624;BME280;27319;50.306;18.926;2022-09-29T16:16:01;97247.09;;;12.38;80.82
41624;BME280;27319;50.306;18.926;2022-09-29T16:19:08;97258.50;;;12.33;81.83
41624;BME280;27319;50.306;18.926;2022-09-29T16:22:33;97264.88;;;12.26;81.74
41624;BME280;27319;50.306;18.926;2022-09-29T16:26:35;97260.88;;;12.09;81.90
41624;BME280;27319;50.306;18.926;2022-09-29T16:30:44;97268.91;;;11.96;82.43
41624;BME280;27319;50.306;18.926;2022-09-29T16:34:27;97270.25;;;11.79;82.97
41624;BME280;27319;50.306;18.926;2022-09-29T16:37:28;97272.34;;;11.77;83.48
41624;BME280;27319;50.306;18.926;2022-09-29T16:40:29;97273.50;;;11.68;83.92
41624;BME280;27319;50.306;18.926;2022-09-29T16:43:50;97276.38;;;11.60;84.32
41624;BME280;27319;50.306;18.926;2022-09-29T16:47:50;97289.09;;;11.51;83.61
41624;BME280;27319;50.306;18.926;2022-09-29T16:51:51;97295.22;;;11.39;85.25
41624;BME280;27319;50.306;18.926;2022-09-29T16:55:55;97297.03;;;11.32;85.59
41624;BME280;27319;50.306;18.926;2022-09-29T16:59:32;97304.81;;;11.27;84.84
41624;BME280;27319;50.306;18.926;2022-09-29T17:03:33;97306.06;;;11.03;84.72
41624;BME280;27319;50.306;18.926;2022-09-29T17:07:37;97319.72;;;11.02;86.15
41624;BME280;27319;50.306;18.926;2022-09-29T17:11:34;97328.13;;;10.99;86.89
41624;BME280;27319;50.306;18.926;2022-09-29T17:15:35;97334.84;;;10.88;86.27
41624;BME280;27319;50.306;18.926;2022-09-29T17:19:36;97337.59;;;10.74;86.33
41624;BME280;27319;50.306;18.926;2022-09-29T17:23:36;97338.72;;;10.65;87.24
41624;BME280;27319;50.306;18.926;2022-09-29T17:27:37;97338.22;;;10.55;87.11
41624;BME280;27319;50.306;18.926;2022-09-29T17:31:32;97343.84;;;10.60;88.00
41624;BME280;27319;50.306;18.926;2022-09-29T17:34:53;97355.69;;;10.66;89.66
41624;BME280;27319;50.306;18.926;2022-09-29T17:38:34;97343.06;;;10.66;90.80
41624;BME280;27319;50.306;18.926;2022-09-29T17:41:36;97350.31;;;10.66;89.84
41624;BME280;27319;50.306;18.926;2022-09-29T17:44:37;97352.91;;;10.59;88.62
41624;BME280;27319;50.306;18.926;2022-09-29T17:48:02;97360.81;;;10.46;88.25
41624;BME280;27319;50.306;18.926;2022-09-29T17:52:03;97355.81;;;10.43;90.02
41624;BME280;27319;50.306;18.926;2022-09-29T17:56:03;97369.00;;;10.38;89.09
41624;BME280;27319;50.306;18.926;2022-09-29T18:00:14;97374.59;;;10.43;90.69
41624;BME280;27319;50.306;18.926;2022-09-29T18:04:10;97376.38;;;10.36;89.13
41624;BME280;27319;50.306;18.926;2022-09-29T18:08:14;97366.84;;;10.34;90.39
41624;BME280;27319;50.306;18.926;2022-09-29T18:12:14;97354.28;;;10.34;90.90
41624;BME280;27319;50.306;18.926;2022-09-29T18:16:18;97353.16;;;10.29;89.69
41624;BME280;27319;50.306;18.926;2022-09-29T18:20:19;97353.41;;;10.13;90.03
41624;BME280;27319;50.306;18.926;2022-09-29T18:24:19;97360.00;;;10.02;90.37
41624;BME280;27319;50.306;18.926;2022-09-29T18:28:20;97363.53;;;10.03;91.50
41624;BME280;27319;50.306;18.926;2022-09-29T18:32:00;97370.13;;;10.15;92.44
41624;BME280;27319;50.306;18.926;2022-09-29T18:35:04;97375.59;;;10.21;92.52
41624;BME280;27319;50.306;18.926;2022-09-29T18:38:05;97372.78;;;10.00;90.01
41624;BME280;27319;50.306;18.926;2022-09-29T18:41:12;97362.38;;;10.05;91.15
41624;BME280;27319;50.306;18.926;2022-09-29T18:44:35;97365.69;;;10.07;91.50
41624;BME280;27319;50.306;18.926;2022-09-29T18:48:36;97372.06;;;10.06;91.84
41624;BME280;27319;50.306;18.926;2022-09-29T18:52:36;97382.03;;;9.98;90.56
41624;BME280;27319;50.306;18.926;2022-09-29T18:56:37;97379.63;;;9.88;91.62
41624;BME280;27319;50.306;18.926;2022-09-29T19:00:38;97386.94;;;9.94;92.22
41624;BME280;27319;50.306;18.926;2022-09-29T19:04:38;97388.28;;;9.76;90.64
41624;BME280;27319;50.306;18.926;2022-09-29T19:08:39;97392.09;;;9.81;92.33
41624;BME280;27319;50.306;18.926;2022-09-29T19:12:40;97395.88;;;9.72;92.23
41624;BME280;27319;50.306;18.926;2022-09-29T19:16:41;97403.72;;;9.74;92.19
41624;BME280;27319;50.306;18.926;2022-09-29T19:20:36;97404.94;;;9.71;92.15
41624;BME280;27319;50.306;18.926;2022-09-29T19:24:36;97407.66;;;9.63;92.32
41624;BME280;27319;50.306;18.926;2022-09-29T19:28:19;97407.97;;;9.68;92.20
41624;BME280;27319;50.306;18.926;2022-09-29T19:31:20;97408.34;;;9.65;92.08
41624;BME280;27319;50.306;18.926;2022-09-29T19:34:21;97413.22;;;9.62;91.13
41624;BME280;27319;50.306;18.926;2022-09-29T19:37:41;97413.03;;;9.63;91.32
41624;BME280;27319;50.306;18.926;2022-09-29T19:41:42;97413.69;;;9.65;91.86
41624;BME280;27319;50.306;18.926;2022-09-29T19:45:43;97406.09;;;9.54;91.28
41624;BME280;27319;50.306;18.926;2022-09-29T19:49:44;97400.16;;;9.44;91.53
41624;BME280;27319;50.306;18.926;2022-09-29T19:53:23;97395.31;;;9.25;91.91
41624;BME280;27319;50.306;18.926;2022-09-29T19:56:45;97395.53;;;9.38;92.61
41624;BME280;27319;50.306;18.926;2022-09-29T20:00:44;97402.00;;;9.29;91.77
41624;BME280;27319;50.306;18.926;2022-09-29T20:04:45;97413.00;;;9.49;93.77
41624;BME280;27319;50.306;18.926;2022-09-29T20:08:45;97423.25;;;9.45;92.23
41624;BME280;27319;50.306;18.926;2022-09-29T20:12:46;97418.88;;;9.30;92.07
41624;BME280;27319;50.306;18.926;2022-09-29T20:16:46;97418.69;;;9.31;91.39
41624;BME280;27319;50.306;18.926;2022-09-29T20:20:27;97425.00;;;9.38;93.10
41624;BME280;27319;50.306;18.926;2022-09-29T20:23:28;97432.09;;;9.31;92.20
41624;BME280;27319;50.306;18.926;2022-09-29T20:26:29;97436.84;;;9.21;92.14
41624;BME280;27319;50.306;18.926;2022-09-29T20:29:30;97446.50;;;9.30;92.21
41624;BME280;27319;50.306;18.926;2022-09-29T20:32:51;97453.91;;;9.43;92.15
41624;BME280;27319;50.306;18.926;2022-09-29T20:36:33;97453.56;;;9.23;91.39
41624;BME280;27319;50.306;18.926;2022-09-29T20:39:54;97461.88;;;9.06;90.80
41624;BME280;27319;50.306;18.926;2022-09-29T20:43:55;97461.47;;;9.17;92.32
41624;BME280;27319;50.306;18.926;2022-09-29T20:47:55;97462.78;;;8.98;90.79
41624;BME280;27319;50.306;18.926;2022-09-29T20:51:56;97461.16;;;8.89;90.86
41624;BME280;27319;50.306;18.926;2022-09-29T20:56:03;97468.13;;;8.98;92.56
41624;BME280;27319;50.306;18.926;2022-09-29T21:00:03;97483.56;;;8.88;92.38
41624;BME280;27319;50.306;18.926;2022-09-29T21:07:09;97499.53;;;9.04;92.92
41624;BME280;27319;50.306;18.926;2022-09-29T21:11:18;97499.91;;;9.01;92.43
41624;BME280;27319;50.306;18.926;2022-09-29T21:15:19;97495.84;;;9.05;92.54
41624;BME280;27319;50.306;18.926;2022-09-29T21:19:21;97506.91;;;9.02;92.72
41624;BME280;27319;50.306;18.926;2022-09-29T21:23:20;97508.25;;;9.06;92.73
41624;BME280;27319;50.306;18.926;2022-09-29T21:27:21;97510.63;;;8.93;91.96
41624;BME280;27319;50.306;18.926;2022-09-29T21:31:25;97519.72;;;8.84;92.36
41624;BME280;27319;50.306;18.926;2022-09-29T21:35:06;97514.63;;;8.97;92.97
41624;BME280;27319;50.306;18.926;2022-09-29T21:38:14;97526.38;;;8.88;92.12
41624;BME280;27319;50.306;18.926;2022-09-29T21:41:42;97516.72;;;8.79;92.11
41624;BME280;27319;50.306;18.926;2022-09-29T21:45:42;97511.81;;;8.52;92.04
41624;BME280;27319;50.306;18.926;2022-09-29T21:49:42;97524.75;;;8.79;92.99
41624;BME280;27319;50.306;18.926;2022-09-29T21:53:43;97524.44;;;8.74;91.91
41624;BME280;27319;50.306;18.926;2022-09-29T21:57:43;97514.22;;;8.78;92.39
41624;BME280;27319;50.306;18.926;2022-09-29T22:01:44;97504.59;;;8.61;91.29
41624;BME280;27319;50.306;18.926;2022-09-29T22:05:45;97504.44;;;8.62;92.24
41624;BME280;27319;50.306;18.926;2022-09-29T22:09:45;97509.31;;;8.51;91.04
41624;BME280;27319;50.306;18.926;2022-09-29T22:13:26;97503.59;;;8.62;93.01